createdAt,value
2018-03-30T00:00:58.412Z,0.00
2018-03-30T00:01:58.394Z,0.00
2018-03-30T00:02:58.721Z,0.00
2018-03-30T00:04:58.315Z,0.00
2018-03-30T00:05:58.290Z,0.00
2018-03-30T00:06:58.369Z,0.00
2018-03-30T00:07:58.549Z,0.00
2018-03-30T00:08:58.518Z,0.00
2018-03-30T00:09:58.209Z,0.00
2018-03-30T00:10:58.170Z,0.00
2018-03-30T00:11:58.157Z,0.00
2018-03-30T00:12:58.238Z,0.00
2018-03-30T00:13:58.140Z,0.00
2018-03-30T00:14:58.537Z,0.00
2018-03-30T00:15:58.070Z,0.00
2018-03-30T00:16:58.046Z,0.00
2018-03-30T00:17:58.030Z,0.00
2018-03-30T00:18:57.990Z,0.00
2018-03-30T00:19:58.066Z,0.00
2018-03-30T00:20:58.397Z,0.00
2018-03-30T00:21:57.927Z,0.00
2018-03-30T00:22:57.903Z,0.00
2018-03-30T00:23:57.941Z,0.00
2018-03-30T00:25:58.732Z,0.00
2018-03-30T00:26:57.799Z,0.00
2018-03-30T00:27:58.112Z,0.00
2018-03-30T00:28:57.828Z,0.00
2018-03-30T00:29:58.153Z,0.00
2018-03-30T00:30:57.725Z,0.00
2018-03-30T00:31:57.688Z,0.00
2018-03-30T00:32:57.914Z,0.00
2018-03-30T00:33:58.046Z,0.00
2018-03-30T00:34:57.623Z,0.00
2018-03-30T00:35:57.596Z,0.00
2018-03-30T00:36:57.694Z,0.00
2018-03-30T00:37:57.543Z,0.00
2018-03-30T00:38:57.525Z,0.00
2018-03-30T00:39:57.846Z,0.00
2018-03-30T00:40:57.472Z,0.00
2018-03-30T00:42:57.421Z,0.00
2018-03-30T00:43:57.422Z,0.00
2018-03-30T00:44:57.384Z,0.00
2018-03-30T00:45:57.420Z,0.00
2018-03-30T00:46:57.634Z,0.00
2018-03-30T00:47:57.304Z,0.00
2018-03-30T00:48:57.294Z,0.00
2018-03-30T00:49:57.267Z,0.00
2018-03-30T00:50:57.242Z,0.00
2018-03-30T00:51:57.269Z,0.00
2018-03-30T00:52:57.197Z,0.00
2018-03-30T00:53:57.471Z,0.00
2018-03-30T00:54:57.205Z,0.00
2018-03-30T00:55:57.122Z,0.00
2018-03-30T00:56:57.143Z,0.00
2018-03-30T00:57:57.132Z,0.00
2018-03-30T00:58:57.044Z,0.00
2018-03-30T00:59:57.042Z,0.00
2018-03-30T01:00:57.354Z,0.00
2018-03-30T01:01:57.084Z,0.00
2018-03-30T01:02:56.972Z,0.00
2018-03-30T01:03:56.935Z,0.00
2018-03-30T01:04:56.914Z,0.00
2018-03-30T01:05:56.936Z,0.00
2018-03-30T01:06:56.857Z,0.00
2018-03-30T01:07:57.143Z,0.00
2018-03-30T01:08:56.811Z,0.00
2018-03-30T01:09:56.796Z,0.00
2018-03-30T01:10:56.770Z,0.00
2018-03-30T01:11:56.841Z,0.00
2018-03-30T01:12:56.730Z,0.00
2018-03-30T01:13:56.714Z,0.00
2018-03-30T01:14:56.974Z,0.00
2018-03-30T01:15:56.658Z,0.00
2018-03-30T01:16:56.672Z,0.00
2018-03-30T01:17:56.596Z,0.00
2018-03-30T01:18:56.592Z,0.00
2018-03-30T01:19:56.558Z,0.00
2018-03-30T01:20:56.634Z,0.00
2018-03-30T01:21:56.960Z,0.00
2018-03-30T01:22:56.491Z,0.00
2018-03-30T01:23:56.462Z,0.00
2018-03-30T01:24:56.440Z,0.00
2018-03-30T01:25:56.411Z,0.00
2018-03-30T01:26:56.404Z,0.00
2018-03-30T01:27:56.424Z,0.00
2018-03-30T01:28:56.656Z,0.00
2018-03-30T01:29:56.520Z,0.00
2018-03-30T01:30:56.299Z,0.00
2018-03-30T01:31:56.388Z,0.00
2018-03-30T01:32:56.249Z,0.00
2018-03-30T01:33:56.265Z,0.00
2018-03-30T01:35:56.474Z,0.00
2018-03-30T01:36:56.163Z,0.00
2018-03-30T01:37:56.188Z,0.00
2018-03-30T01:38:56.103Z,0.00
2018-03-30T01:39:56.176Z,0.00
2018-03-30T01:40:56.365Z,0.00
2018-03-30T01:41:56.033Z,0.00
2018-03-30T01:42:56.005Z,0.00
2018-03-30T01:43:55.993Z,0.00
2018-03-30T01:44:55.968Z,0.00
2018-03-30T01:45:56.046Z,0.00
2018-03-30T01:46:56.222Z,0.00
2018-03-30T01:47:55.937Z,0.00
2018-03-30T01:48:55.855Z,0.00
2018-03-30T01:50:55.816Z,0.00
2018-03-30T01:51:55.792Z,0.00
2018-03-30T01:52:56.064Z,0.00
2018-03-30T01:53:55.788Z,0.00
2018-03-30T01:54:55.725Z,0.00
2018-03-30T01:55:55.706Z,0.00
2018-03-30T01:56:55.704Z,0.00
2018-03-30T01:57:55.711Z,0.00
2018-03-30T01:58:55.919Z,0.00
2018-03-30T01:59:55.645Z,0.00
2018-03-30T02:01:55.556Z,0.00
2018-03-30T02:02:55.527Z,0.00
2018-03-30T02:03:55.498Z,0.00
2018-03-30T02:04:55.821Z,0.00
2018-03-30T02:05:55.451Z,0.00
2018-03-30T02:06:55.425Z,0.00
2018-03-30T02:07:55.403Z,0.00
2018-03-30T02:08:55.375Z,0.00
2018-03-30T02:09:55.359Z,0.00
2018-03-30T02:10:55.377Z,0.00
2018-03-30T02:11:55.958Z,0.00
2018-03-30T02:12:55.280Z,0.00
2018-03-30T02:13:55.256Z,0.00
2018-03-30T02:14:55.244Z,0.00
2018-03-30T02:15:55.251Z,0.00
2018-03-30T02:16:55.246Z,0.00
2018-03-30T02:19:55.463Z,0.00
2018-03-30T02:20:55.095Z,0.00
2018-03-30T02:21:55.270Z,0.00
2018-03-30T02:22:55.041Z,0.00
2018-03-30T02:23:55.015Z,0.00
2018-03-30T02:24:54.992Z,0.00
2018-03-30T02:25:55.032Z,0.00
2018-03-30T02:26:55.295Z,0.00
2018-03-30T02:27:54.923Z,0.00
2018-03-30T02:28:55.055Z,0.00
2018-03-30T02:29:54.883Z,0.00
2018-03-30T02:31:54.843Z,0.00
2018-03-30T02:32:55.157Z,0.00
2018-03-30T02:33:55.088Z,0.00
2018-03-30T02:34:54.798Z,0.00
2018-03-30T02:35:54.735Z,0.00
2018-03-30T02:36:54.808Z,0.00
2018-03-30T02:37:54.690Z,0.00
2018-03-30T02:38:54.666Z,0.00
2018-03-30T02:39:54.641Z,0.00
2018-03-30T02:40:55.909Z,0.00
2018-03-30T02:41:54.596Z,0.00
2018-03-30T02:42:54.817Z,0.00
2018-03-30T02:43:54.540Z,0.00
2018-03-30T02:44:54.523Z,0.00
2018-03-30T02:45:54.500Z,0.00
2018-03-30T02:46:54.470Z,0.00
2018-03-30T02:47:54.737Z,0.00
2018-03-30T02:48:54.459Z,0.00
2018-03-30T02:49:54.391Z,0.00
2018-03-30T02:50:54.871Z,0.00
2018-03-30T02:52:54.326Z,0.00
2018-03-30T02:53:54.405Z,0.00
2018-03-30T02:55:54.543Z,0.00
2018-03-30T02:56:54.236Z,0.00
2018-03-30T02:57:54.198Z,0.00
2018-03-30T02:58:54.174Z,0.00
2018-03-30T02:59:54.221Z,0.00
2018-03-30T03:00:54.136Z,0.00
2018-03-30T03:01:54.454Z,0.00
2018-03-30T03:02:54.081Z,0.00
2018-03-30T03:03:54.050Z,0.00
2018-03-30T03:04:54.028Z,0.00
2018-03-30T03:05:54.008Z,0.00
2018-03-30T03:06:53.976Z,0.00
2018-03-30T03:07:54.316Z,0.00
2018-03-30T03:08:53.934Z,0.00
2018-03-30T03:09:53.908Z,0.00
2018-03-30T03:10:53.881Z,0.00
2018-03-30T03:11:53.852Z,0.00
2018-03-30T03:12:53.839Z,0.00
2018-03-30T03:13:54.167Z,0.00
2018-03-30T03:14:53.784Z,0.00
2018-03-30T03:15:53.862Z,0.00
2018-03-30T03:16:53.833Z,0.00
2018-03-30T03:17:53.708Z,0.00
2018-03-30T03:18:53.690Z,0.00
2018-03-30T03:19:53.958Z,0.00
2018-03-30T03:20:53.784Z,0.00
2018-03-30T03:21:53.705Z,0.00
2018-03-30T03:23:53.610Z,0.00
2018-03-30T03:24:53.542Z,0.00
2018-03-30T03:25:53.825Z,0.00
2018-03-30T03:26:53.490Z,0.00
2018-03-30T03:27:53.523Z,0.00
2018-03-30T03:28:53.440Z,0.00
2018-03-30T03:29:53.422Z,0.00
2018-03-30T03:30:53.455Z,0.00
2018-03-30T03:31:53.461Z,0.00
2018-03-30T03:32:53.656Z,0.00
2018-03-30T03:33:53.384Z,0.00
2018-03-30T03:34:53.305Z,0.00
2018-03-30T03:35:53.272Z,0.00
2018-03-30T03:36:53.452Z,0.00
2018-03-30T03:37:53.326Z,0.00
2018-03-30T03:38:53.189Z,0.00
2018-03-30T03:39:53.483Z,0.00
2018-03-30T03:40:53.152Z,0.00
2018-03-30T03:41:53.189Z,0.00
2018-03-30T03:42:53.152Z,0.00
2018-03-30T03:43:53.084Z,0.00
2018-03-30T03:44:53.062Z,0.00
2018-03-30T03:45:53.026Z,0.00
2018-03-30T03:46:53.293Z,0.00
2018-03-30T03:47:53.027Z,0.00
2018-03-30T03:48:53.057Z,0.00
2018-03-30T03:49:52.929Z,0.00
2018-03-30T03:50:52.950Z,0.00
2018-03-30T03:51:52.876Z,0.00
2018-03-30T03:53:53.120Z,0.00
2018-03-30T03:54:52.850Z,0.00
2018-03-30T03:55:52.882Z,0.00
2018-03-30T03:56:52.757Z,0.00
2018-03-30T03:57:52.738Z,0.00
2018-03-30T03:58:52.705Z,0.00
2018-03-30T03:59:52.684Z,0.00
2018-03-30T04:00:53.212Z,0.00
2018-03-30T04:01:52.630Z,0.00
2018-03-30T04:03:52.581Z,0.00
2018-03-30T04:05:52.534Z,0.00
2018-03-30T04:07:52.863Z,0.00
2018-03-30T04:08:52.495Z,0.00
2018-03-30T04:09:52.435Z,0.00
2018-03-30T04:10:52.419Z,0.00
2018-03-30T04:11:52.379Z,0.00
2018-03-30T04:12:52.353Z,0.00
2018-03-30T04:13:52.493Z,0.00
2018-03-30T04:14:52.670Z,0.00
2018-03-30T04:15:52.286Z,0.00
2018-03-30T04:16:52.260Z,0.00
2018-03-30T04:18:52.204Z,0.00
2018-03-30T04:19:52.295Z,0.00
2018-03-30T04:20:52.454Z,0.00
2018-03-30T04:21:52.193Z,0.00
2018-03-30T04:22:52.116Z,0.00
2018-03-30T04:23:52.089Z,0.00
2018-03-30T04:24:52.418Z,0.00
2018-03-30T04:25:52.039Z,0.00
2018-03-30T04:26:52.315Z,0.00
2018-03-30T04:27:51.986Z,4.00
2018-03-30T04:28:51.964Z,4.00
2018-03-30T04:29:51.984Z,0.00
2018-03-30T04:30:51.964Z,4.00
2018-03-30T04:32:52.265Z,4.00
2018-03-30T04:33:51.841Z,8.00
2018-03-30T04:34:51.814Z,8.00
2018-03-30T04:35:51.842Z,8.00
2018-03-30T04:36:51.816Z,8.00
2018-03-30T04:37:51.735Z,8.00
2018-03-30T04:38:52.069Z,12.00
2018-03-30T04:39:51.742Z,16.00
2018-03-30T04:40:51.819Z,16.00
2018-03-30T04:41:51.636Z,20.00
2018-03-30T04:42:51.614Z,24.00
2018-03-30T04:43:51.585Z,24.00
2018-03-30T04:44:51.870Z,28.00
2018-03-30T04:45:51.649Z,36.00
2018-03-30T04:46:51.538Z,40.00
2018-03-30T04:47:51.503Z,48.00
2018-03-30T04:48:51.470Z,56.00
2018-03-30T04:49:51.543Z,60.00
2018-03-30T04:50:51.732Z,68.00
2018-03-30T04:51:51.449Z,76.00
2018-03-30T04:52:51.471Z,88.00
2018-03-30T04:53:51.344Z,100.00
2018-03-30T04:54:51.367Z,112.00
2018-03-30T04:55:51.306Z,124.00
2018-03-30T04:56:51.378Z,132.00
2018-03-30T04:57:51.538Z,148.00
2018-03-30T04:58:51.216Z,164.00
2018-03-30T04:59:51.200Z,180.00
2018-03-30T05:00:51.168Z,192.00
2018-03-30T05:01:51.186Z,212.00
2018-03-30T05:02:51.122Z,228.00
2018-03-30T05:03:51.099Z,248.00
2018-03-30T05:04:51.371Z,268.00
2018-03-30T05:05:51.349Z,288.00
2018-03-30T05:06:51.031Z,312.00
2018-03-30T05:07:51.120Z,336.00
2018-03-30T05:08:50.965Z,360.00
2018-03-30T05:10:51.224Z,412.00
2018-03-30T05:11:50.942Z,436.00
2018-03-30T05:12:50.874Z,468.00
2018-03-30T05:13:50.839Z,492.00
2018-03-30T05:14:50.826Z,520.00
2018-03-30T05:15:50.864Z,556.00
2018-03-30T05:16:50.777Z,592.00
2018-03-30T05:17:51.048Z,624.00
2018-03-30T05:18:50.737Z,660.00
2018-03-30T05:19:50.705Z,696.00
2018-03-30T05:20:50.733Z,732.00
2018-03-30T05:21:50.705Z,764.00
2018-03-30T05:22:50.626Z,800.00
2018-03-30T05:23:50.609Z,832.00
2018-03-30T05:24:50.982Z,864.00
2018-03-30T05:25:50.554Z,892.00
2018-03-30T05:26:50.524Z,908.00
2018-03-30T05:27:50.543Z,924.00
2018-03-30T05:28:50.483Z,952.00
2018-03-30T05:29:50.487Z,992.00
2018-03-30T05:30:50.530Z,1024.00
2018-03-30T05:31:50.698Z,1052.00
2018-03-30T05:32:50.378Z,1072.00
2018-03-30T05:33:50.502Z,1108.00
2018-03-30T05:36:50.277Z,1208.00
2018-03-30T05:37:50.250Z,1240.00
2018-03-30T05:38:50.528Z,1276.00
2018-03-30T05:39:50.252Z,1320.00
2018-03-30T05:40:50.227Z,1364.00
2018-03-30T05:42:50.154Z,1448.00
2018-03-30T05:43:50.110Z,1484.00
2018-03-30T05:44:50.413Z,1512.00
2018-03-30T05:45:50.168Z,1552.00
2018-03-30T05:46:50.200Z,1584.00
2018-03-30T05:47:50.309Z,1628.00
2018-03-30T05:48:50.018Z,1672.00
2018-03-30T05:49:49.968Z,1724.00
2018-03-30T05:50:50.250Z,1772.00
2018-03-30T05:51:50.010Z,1820.00
2018-03-30T05:52:50.041Z,1872.00
2018-03-30T05:53:49.954Z,1928.00
2018-03-30T05:54:49.855Z,1988.00
2018-03-30T05:55:49.899Z,2040.00
2018-03-30T05:56:50.094Z,2100.00
2018-03-30T05:57:49.777Z,2168.00
2018-03-30T05:58:49.788Z,2244.00
2018-03-30T05:59:49.725Z,2312.00
2018-03-30T06:00:49.692Z,2384.00
2018-03-30T06:01:49.674Z,2452.00
2018-03-30T06:02:49.966Z,2516.00
2018-03-30T06:03:49.636Z,2560.00
2018-03-30T06:04:49.660Z,2628.00
2018-03-30T06:05:49.587Z,2676.00
2018-03-30T06:06:49.561Z,2716.00
2018-03-30T06:07:49.528Z,2764.00
2018-03-30T06:08:49.804Z,2816.00
2018-03-30T06:09:49.484Z,2876.00
2018-03-30T06:10:49.517Z,2956.00
2018-03-30T06:11:49.437Z,3032.00
2018-03-30T06:12:49.414Z,3096.00
2018-03-30T06:13:49.384Z,3148.00
2018-03-30T06:15:49.689Z,3200.00
2018-03-30T06:16:49.317Z,3204.00
2018-03-30T06:17:49.303Z,3200.00
2018-03-30T06:18:49.279Z,3212.00
2018-03-30T06:19:49.255Z,3224.00
2018-03-30T06:20:49.830Z,3252.00
2018-03-30T06:22:49.475Z,3340.00
2018-03-30T06:23:49.158Z,3416.00
2018-03-30T06:24:49.131Z,3532.00
2018-03-30T06:25:49.116Z,3644.00
2018-03-30T06:26:49.312Z,3752.00
2018-03-30T06:27:49.065Z,3876.00
2018-03-30T06:28:49.750Z,3988.00
2018-03-30T06:29:49.315Z,4100.00
2018-03-30T06:30:49.039Z,4172.00
2018-03-30T06:32:48.947Z,4300.00
2018-03-30T06:33:48.926Z,4388.00
2018-03-30T06:34:48.899Z,4464.00
2018-03-30T06:35:48.974Z,4524.00
2018-03-30T06:36:49.162Z,4544.00
2018-03-30T06:37:48.835Z,4568.00
2018-03-30T06:38:48.818Z,4600.00
2018-03-30T06:39:48.839Z,4620.00
2018-03-30T06:40:48.811Z,4636.00
2018-03-30T06:41:48.779Z,4664.00
2018-03-30T06:42:48.805Z,4692.00
2018-03-30T06:43:49.033Z,4716.00
2018-03-30T06:44:48.673Z,4744.00
2018-03-30T06:45:48.750Z,4772.00
2018-03-30T06:46:48.636Z,4808.00
2018-03-30T06:47:48.630Z,4864.00
2018-03-30T06:48:48.581Z,4944.00
2018-03-30T06:50:48.961Z,5112.00
2018-03-30T06:51:48.517Z,5176.00
2018-03-30T06:52:48.501Z,5236.00
2018-03-30T06:54:48.461Z,5396.00
2018-03-30T06:56:48.763Z,5592.00
2018-03-30T06:57:48.391Z,5668.00
2018-03-30T06:59:48.345Z,5868.00
2018-03-30T07:00:48.377Z,5956.00
2018-03-30T07:01:48.301Z,6064.00
2018-03-30T07:03:48.611Z,6260.00
2018-03-30T07:04:48.340Z,6376.00
2018-03-30T07:05:48.242Z,6484.00
2018-03-30T07:06:48.194Z,6572.00
2018-03-30T07:07:48.170Z,6652.00
2018-03-30T07:08:48.157Z,6732.00
2018-03-30T07:09:48.483Z,6796.00
2018-03-30T07:10:48.162Z,6860.00
2018-03-30T07:11:48.148Z,6960.00
2018-03-30T07:12:48.483Z,7048.00
2018-03-30T07:13:48.265Z,7132.00
2018-03-30T07:14:48.155Z,7192.00
2018-03-30T07:15:48.299Z,7228.00
2018-03-30T07:16:47.980Z,7260.00
2018-03-30T07:17:47.956Z,7296.00
2018-03-30T07:18:48.049Z,7316.00
2018-03-30T07:19:48.002Z,7304.00
2018-03-30T07:20:47.913Z,7284.00
2018-03-30T07:21:48.302Z,7288.00
2018-03-30T07:22:47.924Z,7300.00
2018-03-30T07:23:47.910Z,7316.00
2018-03-30T07:24:47.863Z,7380.00
2018-03-30T07:25:47.926Z,7420.00
2018-03-30T07:26:47.835Z,7464.00
2018-03-30T07:27:48.110Z,7508.00
2018-03-30T07:28:47.783Z,7544.00
2018-03-30T07:29:47.926Z,7568.00
2018-03-30T07:30:47.751Z,7596.00
2018-03-30T07:33:47.973Z,7632.00
2018-03-30T07:34:47.660Z,7656.00
2018-03-30T07:35:47.666Z,7676.00
2018-03-30T07:36:47.615Z,7692.00
2018-03-30T07:37:47.567Z,7700.00
2018-03-30T07:40:47.894Z,7824.00
2018-03-30T07:41:47.682Z,7852.00
2018-03-30T07:42:47.497Z,7880.00
2018-03-30T07:43:47.484Z,7912.00
2018-03-30T07:45:47.436Z,7952.00
2018-03-30T07:46:47.418Z,7988.00
2018-03-30T07:48:47.720Z,8080.00
2018-03-30T07:49:47.355Z,8112.00
2018-03-30T07:50:47.437Z,8136.00
2018-03-30T07:51:47.394Z,8180.00
2018-03-30T07:52:47.319Z,8228.00
2018-03-30T07:54:47.538Z,8308.00
2018-03-30T07:55:47.309Z,8336.00
2018-03-30T07:56:47.334Z,8372.00
2018-03-30T07:57:47.195Z,8412.00
2018-03-30T07:58:47.177Z,8444.00
2018-03-30T07:59:47.474Z,8480.00
2018-03-30T08:00:47.108Z,8504.00
2018-03-30T08:01:47.464Z,8544.00
2018-03-30T08:03:47.086Z,8636.00
2018-03-30T08:04:47.073Z,8676.00
2018-03-30T08:06:47.042Z,8736.00
2018-03-30T08:07:47.054Z,8776.00
2018-03-30T08:08:47.285Z,8836.00
2018-03-30T08:09:46.904Z,8936.00
2018-03-30T08:10:46.888Z,9044.00
2018-03-30T08:11:46.874Z,9188.00
2018-03-30T08:12:47.027Z,9364.00
2018-03-30T08:13:46.941Z,9568.00
2018-03-30T08:14:46.908Z,9732.00
2018-03-30T08:15:47.212Z,9928.00
2018-03-30T08:16:46.925Z,10108.00
2018-03-30T08:17:46.824Z,10296.00
2018-03-30T08:18:46.746Z,10484.00
2018-03-30T08:20:46.704Z,11048.00
2018-03-30T08:21:46.793Z,11236.00
2018-03-30T08:22:46.982Z,11320.00
2018-03-30T08:23:46.699Z,11592.00
2018-03-30T08:24:46.667Z,11796.00
2018-03-30T08:25:46.666Z,11752.00
2018-03-30T08:27:46.844Z,11800.00
2018-03-30T08:28:46.591Z,11848.00
2018-03-30T08:29:46.885Z,11796.00
2018-03-30T08:30:46.709Z,11656.00
2018-03-30T08:31:46.582Z,11500.00
2018-03-30T08:32:46.737Z,11224.00
2018-03-30T08:33:46.570Z,11524.00
2018-03-30T08:34:46.449Z,11380.00
2018-03-30T08:35:46.742Z,11552.00
2018-03-30T08:36:46.457Z,11588.00
2018-03-30T08:37:46.390Z,11704.00
2018-03-30T08:39:46.362Z,11728.00
2018-03-30T08:40:46.336Z,11804.00
2018-03-30T08:41:46.329Z,12224.00
2018-03-30T08:42:46.371Z,12760.00
2018-03-30T08:43:46.340Z,12628.00
2018-03-30T08:44:46.392Z,12896.00
2018-03-30T08:45:46.459Z,12488.00
2018-03-30T08:47:46.631Z,12704.00
2018-03-30T08:48:46.208Z,12144.00
2018-03-30T08:49:46.349Z,11384.00
2018-03-30T08:50:46.282Z,10800.00
2018-03-30T08:51:46.186Z,10700.00
2018-03-30T08:52:46.141Z,10596.00
2018-03-30T08:53:46.585Z,9980.00
2018-03-30T08:54:46.164Z,10596.00
2018-03-30T08:55:46.095Z,10360.00
2018-03-30T08:58:46.169Z,10820.00
2018-03-30T08:59:46.086Z,11424.00
2018-03-30T09:00:46.390Z,11124.00
2018-03-30T09:01:46.107Z,10208.00
2018-03-30T09:02:45.988Z,10216.00
2018-03-30T09:03:46.070Z,10204.00
2018-03-30T09:04:45.959Z,9676.00
2018-03-30T09:05:46.044Z,11276.00
2018-03-30T09:07:46.296Z,10144.00
2018-03-30T09:08:45.940Z,10244.00
2018-03-30T09:09:45.877Z,10088.00
2018-03-30T09:10:45.904Z,10036.00
2018-03-30T09:12:45.870Z,10316.00
2018-03-30T09:14:47.404Z,10336.00
2018-03-30T09:15:45.794Z,10092.00
2018-03-30T09:16:45.824Z,10304.00
2018-03-30T09:18:45.792Z,10316.00
2018-03-30T09:19:45.738Z,10468.00
2018-03-30T09:20:45.821Z,10760.00
2018-03-30T09:21:45.997Z,11164.00
2018-03-30T09:22:45.778Z,10532.00
2018-03-30T09:23:45.773Z,10496.00
2018-03-30T09:24:45.716Z,10864.00
2018-03-30T09:25:45.648Z,10700.00
2018-03-30T09:26:45.613Z,10688.00
2018-03-30T09:29:45.933Z,11364.00
2018-03-30T09:30:45.582Z,10924.00
2018-03-30T09:31:45.598Z,12892.00
2018-03-30T09:32:45.534Z,11064.00
2018-03-30T09:33:45.528Z,12120.00
2018-03-30T09:34:45.610Z,11420.00
2018-03-30T09:37:45.825Z,10476.00
2018-03-30T09:38:45.574Z,12612.00
2018-03-30T09:39:45.492Z,13576.00
2018-03-30T09:40:45.447Z,16000.00
2018-03-30T09:41:45.543Z,16096.00
2018-03-30T09:42:45.416Z,16096.00
2018-03-30T09:43:45.425Z,17408.00
2018-03-30T09:44:45.514Z,15840.00
2018-03-30T09:45:45.398Z,14720.00
2018-03-30T09:47:45.344Z,16512.00
2018-03-30T09:48:45.334Z,15728.00
2018-03-30T09:49:45.328Z,19744.00
2018-03-30T09:50:45.670Z,20000.00
2018-03-30T09:51:45.452Z,18624.00
2018-03-30T09:52:45.297Z,19040.00
2018-03-30T09:53:45.283Z,19488.00
2018-03-30T09:55:45.359Z,22976.00
2018-03-30T09:56:45.357Z,23424.00
2018-03-30T09:57:45.547Z,23424.00
2018-03-30T09:58:45.237Z,23424.00
2018-03-30T09:59:45.211Z,23776.00
2018-03-30T10:00:45.205Z,26848.00
2018-03-30T10:01:45.253Z,26528.00
2018-03-30T10:03:45.492Z,24256.00
2018-03-30T10:09:45.479Z,15808.00
2018-03-30T10:10:45.114Z,19072.00
2018-03-30T10:11:45.138Z,20064.00
2018-03-30T10:13:45.505Z,21760.00
2018-03-30T10:15:45.440Z,13688.00
2018-03-30T10:17:45.191Z,19808.00
2018-03-30T10:18:45.416Z,21536.00
2018-03-30T10:21:45.467Z,27104.00
2018-03-30T10:23:45.329Z,24544.00
2018-03-30T10:24:44.968Z,26336.00
2018-03-30T10:25:44.965Z,28224.00
2018-03-30T10:27:45.294Z,27680.00
2018-03-30T10:28:44.938Z,25216.00
2018-03-30T10:31:44.905Z,20256.00
2018-03-30T10:34:45.238Z,22976.00
2018-03-30T10:35:44.969Z,23264.00
2018-03-30T10:37:44.852Z,21376.00
2018-03-30T10:38:44.854Z,23008.00
2018-03-30T10:39:44.840Z,21504.00
2018-03-30T10:40:44.906Z,21120.00
2018-03-30T10:41:45.179Z,21728.00
2018-03-30T10:43:44.810Z,22208.00
2018-03-30T10:45:44.786Z,25696.00
2018-03-30T10:46:44.834Z,26208.00
2018-03-30T10:47:44.776Z,24800.00
2018-03-30T10:48:45.092Z,24800.00
2018-03-30T10:49:44.754Z,24288.00
2018-03-30T10:50:44.752Z,24064.00
2018-03-30T10:51:44.839Z,19712.00
2018-03-30T10:52:44.790Z,23680.00
2018-03-30T10:54:45.071Z,23712.00
2018-03-30T10:56:44.748Z,36704.00
2018-03-30T10:57:44.704Z,54496.00
2018-03-30T10:58:44.789Z,61152.00
2018-03-30T11:00:44.983Z,53504.00
2018-03-30T11:02:44.782Z,23168.00
2018-03-30T11:03:44.654Z,30944.00
2018-03-30T11:04:44.758Z,40480.00
2018-03-30T11:05:44.746Z,17856.00
2018-03-30T11:06:44.641Z,28864.00
2018-03-30T11:07:45.133Z,43680.00
2018-03-30T11:10:44.701Z,50368.00
2018-03-30T11:11:44.663Z,56768.00
2018-03-30T11:12:44.698Z,55808.00
2018-03-30T11:14:44.874Z,58560.00
2018-03-30T11:16:44.568Z,63488.00
2018-03-30T11:17:45.304Z,59680.00
2018-03-30T11:18:44.603Z,55456.00
2018-03-30T11:19:44.541Z,55904.00
2018-03-30T11:20:44.613Z,50880.00
2018-03-30T11:22:44.822Z,52768.00
2018-03-30T11:24:44.704Z,55968.00
2018-03-30T11:25:44.505Z,58592.00
2018-03-30T11:26:44.486Z,58912.00
2018-03-30T11:27:44.488Z,60576.00
2018-03-30T11:29:44.816Z,60672.00
2018-03-30T11:30:44.463Z,62944.00
2018-03-30T11:31:44.459Z,60192.00
2018-03-30T11:32:44.547Z,61024.00
2018-03-30T11:33:44.447Z,63712.00
2018-03-30T11:34:44.498Z,63008.00
2018-03-30T11:35:44.741Z,61632.00
2018-03-30T11:36:44.485Z,64544.00
2018-03-30T11:37:44.438Z,65024.00
2018-03-30T11:38:44.571Z,64512.00
2018-03-30T11:39:44.623Z,64928.00
2018-03-30T11:40:44.461Z,67008.00
2018-03-30T11:41:44.719Z,66368.00
2018-03-30T11:42:44.454Z,66592.00
2018-03-30T11:43:44.414Z,64832.00
2018-03-30T11:44:44.813Z,62560.00
2018-03-30T11:45:44.390Z,59136.00
2018-03-30T11:46:44.478Z,56448.00
2018-03-30T11:48:44.599Z,52480.00
2018-03-30T11:49:44.369Z,55904.00
2018-03-30T11:51:44.459Z,62624.00
2018-03-30T11:52:44.349Z,63232.00
2018-03-30T11:53:44.819Z,63968.00
2018-03-30T11:54:44.965Z,60384.00
2018-03-30T11:55:44.336Z,60224.00
2018-03-30T11:56:44.336Z,60768.00
2018-03-30T11:57:44.333Z,61600.00
2018-03-30T11:58:44.427Z,62272.00
2018-03-30T11:59:44.625Z,59040.00
2018-03-30T12:00:44.382Z,41152.00
2018-03-30T12:01:44.310Z,57664.00
2018-03-30T12:02:44.316Z,53184.00
2018-03-30T12:03:44.307Z,56032.00
2018-03-30T12:04:44.356Z,57888.00
2018-03-30T12:05:44.598Z,50528.00
2018-03-30T12:06:44.288Z,16564.00
2018-03-30T12:07:44.298Z,55136.00
2018-03-30T12:08:44.287Z,19360.00
2018-03-30T12:09:44.276Z,15868.00
2018-03-30T12:10:44.435Z,14812.00
2018-03-30T12:11:44.575Z,29344.00
2018-03-30T12:12:44.262Z,18272.00
2018-03-30T12:13:44.275Z,50880.00
2018-03-30T12:14:44.252Z,59744.00
2018-03-30T12:15:44.250Z,62592.00
2018-03-30T12:16:44.292Z,63552.00
2018-03-30T12:17:44.536Z,63424.00
2018-03-30T12:18:44.231Z,60992.00
2018-03-30T12:20:44.231Z,59904.00
2018-03-30T12:21:44.365Z,61088.00
2018-03-30T12:22:44.267Z,62176.00
2018-03-30T12:23:44.283Z,61920.00
2018-03-30T12:24:44.504Z,60800.00
2018-03-30T12:26:44.204Z,64288.00
2018-03-30T12:27:44.225Z,62432.00
2018-03-30T12:28:44.280Z,60160.00
2018-03-30T12:29:44.173Z,61344.00
2018-03-30T12:30:44.183Z,62720.00
2018-03-30T12:31:44.465Z,59744.00
2018-03-30T12:32:44.300Z,57920.00
2018-03-30T12:33:44.230Z,59744.00
2018-03-30T12:35:44.161Z,59936.00
2018-03-30T12:36:44.153Z,59744.00
2018-03-30T12:37:44.138Z,57184.00
2018-03-30T12:38:44.188Z,56832.00
2018-03-30T12:39:44.129Z,57344.00
2018-03-30T12:40:44.132Z,56032.00
2018-03-30T12:41:44.142Z,54528.00
2018-03-30T12:43:44.434Z,57824.00
2018-03-30T12:44:44.156Z,60032.00
2018-03-30T12:45:44.107Z,58656.00
2018-03-30T12:47:44.212Z,59200.00
2018-03-30T12:48:44.213Z,53056.00
2018-03-30T12:49:44.227Z,50912.00
2018-03-30T12:50:44.384Z,56320.00
2018-03-30T12:51:44.091Z,55904.00
2018-03-30T12:52:44.093Z,53472.00
2018-03-30T12:53:44.083Z,54592.00
2018-03-30T12:54:44.186Z,59968.00
2018-03-30T12:55:44.094Z,58528.00
2018-03-30T12:56:44.166Z,52544.00
2018-03-30T12:57:44.372Z,54624.00
2018-03-30T12:58:44.058Z,58688.00
2018-03-30T13:00:44.056Z,49888.00
2018-03-30T13:01:44.051Z,47168.00
2018-03-30T13:02:44.098Z,47872.00
2018-03-30T13:03:44.043Z,50496.00
2018-03-30T13:04:44.343Z,52160.00
2018-03-30T13:05:44.041Z,48576.00
2018-03-30T13:06:44.036Z,46368.00
2018-03-30T13:07:44.036Z,47584.00
2018-03-30T13:09:44.086Z,39968.00
2018-03-30T13:10:44.031Z,41216.00
2018-03-30T13:11:44.446Z,47648.00
2018-03-30T13:12:44.028Z,50784.00
2018-03-30T13:13:44.026Z,50720.00
2018-03-30T13:14:44.016Z,48704.00
2018-03-30T13:15:44.023Z,13056.00
2018-03-30T13:16:44.010Z,45920.00
2018-03-30T13:18:44.368Z,52512.00
2018-03-30T13:19:44.010Z,51200.00
2018-03-30T13:20:43.994Z,48544.00
2018-03-30T13:21:44.099Z,47456.00
2018-03-30T13:22:44.006Z,48704.00
2018-03-30T13:23:43.994Z,48544.00
2018-03-30T13:24:44.817Z,49440.00
2018-03-30T13:25:43.988Z,14112.00
2018-03-30T13:26:43.983Z,50016.00
2018-03-30T13:27:44.188Z,33408.00
2018-03-30T13:28:43.983Z,12692.00
2018-03-30T13:29:43.985Z,9500.00
2018-03-30T13:31:44.375Z,35072.00
2018-03-30T13:32:44.028Z,14624.00
2018-03-30T13:33:43.968Z,45344.00
2018-03-30T13:34:43.956Z,47136.00
2018-03-30T13:35:43.958Z,45600.00
2018-03-30T13:36:43.943Z,39552.00
2018-03-30T13:37:44.289Z,30016.00
2018-03-30T13:38:43.999Z,34912.00
2018-03-30T13:39:43.955Z,43776.00
2018-03-30T13:40:44.226Z,42976.00
2018-03-30T13:41:43.977Z,38688.00
2018-03-30T13:42:44.010Z,39328.00
2018-03-30T13:43:44.214Z,39328.00
2018-03-30T13:45:43.950Z,33664.00
2018-03-30T13:46:44.177Z,37056.00
2018-03-30T13:48:43.934Z,37056.00
2018-03-30T13:49:44.284Z,38176.00
2018-03-30T13:50:43.880Z,40672.00
2018-03-30T13:51:43.969Z,39200.00
2018-03-30T13:52:43.872Z,38880.00
2018-03-30T13:53:43.870Z,39552.00
2018-03-30T13:54:43.858Z,39008.00
2018-03-30T13:55:44.246Z,40000.00
2018-03-30T13:56:43.925Z,39008.00
2018-03-30T13:57:44.302Z,37984.00
2018-03-30T14:00:43.924Z,25280.00
2018-03-30T14:01:44.214Z,18112.00
2018-03-30T14:02:43.816Z,14952.00
2018-03-30T14:03:43.905Z,14120.00